Terminal Aerodrome Forecast
Issued by NWS Grand Forks, ND

Home | Current Version | Previous Version | Graphics & Text | Print | Product List | Glossary On
Versions: 1 2 3 4 5 6 7 8 9 10 11 12 13 14
583
FTUS43 KFGF 210456 AAA
TAFFAR
TAF AMD
KFAR 210456Z 2105/2124 14010KT P6SM VCTS SCT025CB BKN100
      TEMPO 2105/2107 VRB40KT 2SM -TSRA BKN020CB OVC030
     FM210830 VRB05KT P6SM SCT025 BKN050
     FM211400 35007KT P6SM SCT200=

USA.gov is the U.S. government's official web portal to all federal, state and local government web resources and services.